Cuttyhunk, Massachusetts
Current Conditions -  °F | °C
As of 1:53 PM on Thursday 30 Oct 2014 (Local Time) from KMVY Reporting Station
Clear Clear  
Wind Chill: 59°   Ceiling: Unl
Heat Index: 59°   Visibility: 10mi
Dew Point: 38°   Wind: 6mph
Humidity: 46%   Direction: NA
Pressure: 29.92"   Gusts: NA
Location:  41.42°N, 70.93°W
Report Text: KMVY 301753Z VRB05KT 10SM CLR 15/03 A2992 RMK AO2 SLP130 T01500033 10161 20067 56010
Loading
Personal Weather Stations






























Interactive Weather Map
Tropical Storm Tracking
New forecast layout! Learn more

10-Day Weather Forecast

Advertisements
Track Severe Weather on mobile